Orion II — 9HUT9 — position and weather

sailwx.info

Track history (hours):
 
Tides and Currents Weather Stations Pressure Air Temp Water Temp Dewpoint Dewpoint Depression Visibility Wind Speed Wind Dir Waves Ship Positions

Orion II

Last reported at 2019-Nov-11 11:43 UTC. Time now 2019-Nov-20 09:25 UTC.
Position N 28°11' W 016°12'.
Warning: this ship's position is 8 days out of date.

Length 88 m; draft 4.1 m.

Type: Passenger vessel. MMSI: 249556000.

Date/timePositionNaut miles runAvg speedWind from/ knotsBaromVisibWave heightAir tempDewpointWater temp
2019-Nov-11 11:43N 28°11' W 016°12'1411.7
2019-Nov-11 10:30N 28°25' W 016°10'5 3.3
2019-Nov-11 09:00N 28°28' W 016°14'2 0.5
2019-Nov-11 06:00N 28°29' W 016°13'0 0.0
2019-Nov-11 05:30N 28°29' W 016°13'16 7.8
2019-Nov-11 03:29N 28°28' W 015°55'1312.4
2019-Nov-11 02:27N 28°38' W 015°46'512.2
2019-Nov-11 02:00N 28°43' W 015°43'1312.2
2019-Nov-11 00:55N 28°55' W 015°36'812.2
2019-Nov-11 00:18N 29°02' W 015°32'1312.9
2019-Nov-10 23:19N 29°13' W 015°25'61912.4
2019-Nov-08 21:17N 38°20' W 009°35'412.4
2019-Nov-08 20:59N 38°23' W 009°33'612.4
2019-Nov-08 20:30N 38°28' W 009°29'21 6.8
2019-Nov-08 17:26N 38°42' W 009°09'0 0.0
2019-Nov-08 16:26N 38°42' W 009°09'0 0.0
2019-Nov-08 10:59N 38°42' W 009°09'0 0.0
2019-Nov-08 09:29N 38°42' W 009°09'0 0.0
2019-Nov-08 08:59N 38°42' W 009°09'0 0.0
2019-Nov-08 08:29N 38°42' W 009°09'0 0.0
2019-Nov-08 06:59N 38°42' W 009°09'0 0.0
2019-Nov-07 23:29N 38°42' W 009°09'0 0.0
2019-Nov-07 22:59N 38°42' W 009°09'0 0.0
2019-Nov-07 21:29N 38°42' W 009°09'0 0.0
2019-Nov-07 15:29N 38°42' W 009°09'0 0.0
2019-Nov-07 14:29N 38°42' W 009°09'0 0.0
2019-Nov-07 11:59N 38°42' W 009°09'0 0.0
2019-Nov-07 10:59N 38°42' W 009°09'0 0.0
2019-Nov-07 07:29N 38°42' W 009°09'0 0.0
2019-Nov-07 03:26N 38°42' W 009°09'0 0.0
2019-Nov-07 02:59N 38°42' W 009°09'0 0.0
2019-Nov-07 02:29N 38°42' W 009°09'0 0.0
2019-Nov-06 20:53N 38°42' W 009°09'0 0.0
2019-Nov-06 15:29N 38°42' W 009°09'0 0.0
2019-Nov-06 14:59N 38°42' W 009°09'0 0.0
2019-Nov-06 14:29N 38°42' W 009°09'0 0.0
2019-Nov-06 13:59N 38°42' W 009°09'0 0.0
2019-Nov-06 13:29N 38°42' W 009°09'0 0.0
2019-Nov-06 08:29N 38°42' W 009°09'0 0.0
2019-Nov-06 06:29N 38°42' W 009°09'0 0.0
2019-Nov-06 04:59N 38°42' W 009°09'0 0.0
2019-Nov-06 03:59N 38°42' W 009°09'0 0.0
2019-Nov-06 01:59N 38°42' W 009°09'0 0.0
2019-Nov-05 23:59N 38°42' W 009°09'0 0.0
2019-Nov-05 22:30N 38°42' W 009°09'0 0.0
2019-Nov-05 18:29N 38°42' W 009°09'0 0.0
2019-Nov-05 17:59N 38°42' W 009°09'0 0.0
2019-Nov-05 17:29N 38°42' W 009°09'0 0.0
2019-Nov-05 12:50N 38°42' W 009°09'0 0.0
2019-Nov-05 11:23N 38°42' W 009°09'0 0.0
2019-Nov-05 08:02N 38°42' W 009°09'0 0.0
2019-Nov-04 19:13N 38°42' W 009°09'0 0.0
2019-Nov-04 05:07N 38°42' W 009°09'0 0.0
2019-Nov-04 04:46N 38°42' W 009°09'0 0.0
2019-Nov-03 23:55N 38°42' W 009°09'0 0.0
2019-Nov-03 21:28N 38°42' W 009°09'0 0.0
2019-Nov-03 20:58N 38°42' W 009°09'0 0.0
2019-Nov-03 16:55N 38°42' W 009°09'0 0.0
2019-Nov-03 14:58N 38°42' W 009°09'0 0.0
2019-Nov-03 14:25N 38°42' W 009°09'0 0.0
2019-Nov-03 13:28N 38°42' W 009°09'0 0.0
2019-Nov-03 09:58N 38°42' W 009°09'0 0.0
2019-Nov-03 07:58N 38°42' W 009°09'0 0.0
2019-Nov-03 06:28N 38°42' W 009°09'0 0.0
2019-Nov-03 05:55N 38°42' W 009°09'0 0.0
2019-Nov-03 01:28N 38°42' W 009°09'0 0.0
2019-Nov-02 22:00N 38°42' W 009°09'0 0.0
2019-Nov-02 21:30N 38°42' W 009°09'0 0.0
2019-Nov-02 20:30N 38°42' W 009°09'0 0.0
2019-Nov-02 19:30N 38°42' W 009°09'0 0.0
2019-Nov-02 19:00N 38°42' W 009°09'0 0.0
2019-Nov-02 18:30N 38°42' W 009°09'0 0.0
2019-Nov-02 17:57N 38°42' W 009°09'0 0.0
2019-Nov-02 17:30N 38°42' W 009°09'0 0.0
2019-Nov-02 10:00N 38°42' W 009°09'0 0.0
2019-Nov-02 09:00N 38°42' W 009°09'0 0.0
2019-Nov-02 08:27N 38°42' W 009°09'0 0.0
2019-Nov-02 07:30N 38°42' W 009°09'0 0.0
2019-Nov-02 06:00N 38°42' W 009°09'0 0.0
2019-Nov-02 04:57N 38°42' W 009°09'0 0.0
2019-Nov-02 02:00N 38°42' W 009°09'0 0.0
2019-Nov-02 01:30N 38°42' W 009°09'0 0.0
2019-Nov-02 01:00N 38°42' W 009°09'0 0.0
2019-Nov-02 00:30N 38°42' W 009°09'0 0.0
2019-Nov-02 00:00N 38°42' W 009°09'0 0.0
2019-Nov-01 23:30N 38°42' W 009°09'0 0.0
2019-Nov-01 23:00N 38°42' W 009°09'0 0.0
2019-Nov-01 22:30N 38°42' W 009°09'0 0.0
2019-Nov-01 22:00N 38°42' W 009°09'0 0.0
2019-Nov-01 21:30N 38°42' W 009°09'0 0.0
2019-Nov-01 21:00N 38°42' W 009°09'0 0.0
2019-Nov-01 20:30N 38°42' W 009°09'0 0.0
2019-Nov-01 20:00N 38°42' W 009°09'0 0.0
2019-Nov-01 19:30N 38°42' W 009°09'0 0.0
2019-Nov-01 19:00N 38°42' W 009°09'0 0.0
2019-Nov-01 18:30N 38°42' W 009°09'0 0.0
2019-Nov-01 18:00N 38°42' W 009°09'0 0.0
2019-Nov-01 17:30N 38°42' W 009°09'0 0.0
2019-Nov-01 17:00N 38°42' W 009°09'0 0.0
2019-Nov-01 16:30N 38°42' W 009°09'0 0.0
2019-Nov-01 16:00N 38°42' W 009°09'0 0.0
2019-Nov-01 15:29N 38°42' W 009°09'0 0.0
2019-Nov-01 14:59N 38°42' W 009°09'0 0.0
2019-Nov-01 14:29N 38°42' W 009°09'0 0.0
2019-Nov-01 13:59N 38°42' W 009°09'0 0.0
2019-Nov-01 13:29N 38°42' W 009°09'0 0.0
2019-Nov-01 12:59N 38°42' W 009°09'0 0.0
2019-Nov-01 12:29N 38°42' W 009°09'0 0.0
2019-Nov-01 11:59N 38°42' W 009°09'  
Track history (hours):
 
Tides and Currents Weather Stations Pressure Air Temp Water Temp Dewpoint Dewpoint Depression Visibility Wind Speed Wind Dir Waves Ship Positions

Orion II

Last reported at 2019-Nov-11 11:43 UTC. Time now 2019-Nov-20 09:25 UTC.
Position N 28°11' W 016°12'.
Warning: this ship's position is 8 days out of date.

Length 88 m; draft 4.1 m.

Type: Passenger vessel. MMSI: 249556000.

Date/timePositionNaut miles runAvg speedWind from/ knotsBaromVisibWave heightAir tempDewpointWater temp
2019-Nov-11 11:43N 28°11' W 016°12'1411.7
2019-Nov-11 10:30N 28°25' W 016°10'5 3.3
2019-Nov-11 09:00N 28°28' W 016°14'2 0.5
2019-Nov-11 06:00N 28°29' W 016°13'0 0.0
2019-Nov-11 05:30N 28°29' W 016°13'16 7.8
2019-Nov-11 03:29N 28°28' W 015°55'1312.4
2019-Nov-11 02:27N 28°38' W 015°46'512.2
2019-Nov-11 02:00N 28°43' W 015°43'1312.2
2019-Nov-11 00:55N 28°55' W 015°36'812.2
2019-Nov-11 00:18N 29°02' W 015°32'1312.9
2019-Nov-10 23:19N 29°13' W 015°25'61912.4
2019-Nov-08 21:17N 38°20' W 009°35'412.4
2019-Nov-08 20:59N 38°23' W 009°33'612.4
2019-Nov-08 20:30N 38°28' W 009°29'21 6.8
2019-Nov-08 17:26N 38°42' W 009°09'0 0.0
2019-Nov-08 16:26N 38°42' W 009°09'0 0.0
2019-Nov-08 10:59N 38°42' W 009°09'0 0.0
2019-Nov-08 09:29N 38°42' W 009°09'0 0.0
2019-Nov-08 08:59N 38°42' W 009°09'0 0.0
2019-Nov-08 08:29N 38°42' W 009°09'0 0.0
2019-Nov-08 06:59N 38°42' W 009°09'0 0.0
2019-Nov-07 23:29N 38°42' W 009°09'0 0.0
2019-Nov-07 22:59N 38°42' W 009°09'0 0.0
2019-Nov-07 21:29N 38°42' W 009°09'0 0.0
2019-Nov-07 15:29N 38°42' W 009°09'0 0.0
2019-Nov-07 14:29N 38°42' W 009°09'0 0.0
2019-Nov-07 11:59N 38°42' W 009°09'0 0.0
2019-Nov-07 10:59N 38°42' W 009°09'0 0.0
2019-Nov-07 07:29N 38°42' W 009°09'0 0.0
2019-Nov-07 03:26N 38°42' W 009°09'0 0.0
2019-Nov-07 02:59N 38°42' W 009°09'0 0.0
2019-Nov-07 02:29N 38°42' W 009°09'0 0.0
2019-Nov-06 20:53N 38°42' W 009°09'0 0.0
2019-Nov-06 15:29N 38°42' W 009°09'0 0.0
2019-Nov-06 14:59N 38°42' W 009°09'0 0.0
2019-Nov-06 14:29N 38°42' W 009°09'0 0.0
2019-Nov-06 13:59N 38°42' W 009°09'0 0.0
2019-Nov-06 13:29N 38°42' W 009°09'0 0.0
2019-Nov-06 08:29N 38°42' W 009°09'0 0.0
2019-Nov-06 06:29N 38°42' W 009°09'0 0.0
2019-Nov-06 04:59N 38°42' W 009°09'0 0.0
2019-Nov-06 03:59N 38°42' W 009°09'0 0.0
2019-Nov-06 01:59N 38°42' W 009°09'0 0.0
2019-Nov-05 23:59N 38°42' W 009°09'0 0.0
2019-Nov-05 22:30N 38°42' W 009°09'0 0.0
2019-Nov-05 18:29N 38°42' W 009°09'0 0.0
2019-Nov-05 17:59N 38°42' W 009°09'0 0.0
2019-Nov-05 17:29N 38°42' W 009°09'0 0.0
2019-Nov-05 12:50N 38°42' W 009°09'0 0.0
2019-Nov-05 11:23N 38°42' W 009°09'0 0.0
2019-Nov-05 08:02N 38°42' W 009°09'0 0.0
2019-Nov-04 19:13N 38°42' W 009°09'0 0.0
2019-Nov-04 05:07N 38°42' W 009°09'0 0.0
2019-Nov-04 04:46N 38°42' W 009°09'0 0.0
2019-Nov-03 23:55N 38°42' W 009°09'0 0.0
2019-Nov-03 21:28N 38°42' W 009°09'0 0.0
2019-Nov-03 20:58N 38°42' W 009°09'0 0.0
2019-Nov-03 16:55N 38°42' W 009°09'0 0.0
2019-Nov-03 14:58N 38°42' W 009°09'0 0.0
2019-Nov-03 14:25N 38°42' W 009°09'0 0.0
2019-Nov-03 13:28N 38°42' W 009°09'0 0.0
2019-Nov-03 09:58N 38°42' W 009°09'0 0.0
2019-Nov-03 07:58N 38°42' W 009°09'0 0.0
2019-Nov-03 06:28N 38°42' W 009°09'0 0.0
2019-Nov-03 05:55N 38°42' W 009°09'0 0.0
2019-Nov-03 01:28N 38°42' W 009°09'0 0.0
2019-Nov-02 22:00N 38°42' W 009°09'0 0.0
2019-Nov-02 21:30N 38°42' W 009°09'0 0.0
2019-Nov-02 20:30N 38°42' W 009°09'0 0.0
2019-Nov-02 19:30N 38°42' W 009°09'0 0.0
2019-Nov-02 19:00N 38°42' W 009°09'0 0.0
2019-Nov-02 18:30N 38°42' W 009°09'0 0.0
2019-Nov-02 17:57N 38°42' W 009°09'0 0.0
2019-Nov-02 17:30N 38°42' W 009°09'0 0.0
2019-Nov-02 10:00N 38°42' W 009°09'0 0.0
2019-Nov-02 09:00N 38°42' W 009°09'0 0.0
2019-Nov-02 08:27N 38°42' W 009°09'0 0.0
2019-Nov-02 07:30N 38°42' W 009°09'0 0.0
2019-Nov-02 06:00N 38°42' W 009°09'0 0.0
2019-Nov-02 04:57N 38°42' W 009°09'0 0.0
2019-Nov-02 02:00N 38°42' W 009°09'0 0.0
2019-Nov-02 01:30N 38°42' W 009°09'0 0.0
2019-Nov-02 01:00N 38°42' W 009°09'0 0.0
2019-Nov-02 00:30N 38°42' W 009°09'0 0.0
2019-Nov-02 00:00N 38°42' W 009°09'0 0.0
2019-Nov-01 23:30N 38°42' W 009°09'0 0.0
2019-Nov-01 23:00N 38°42' W 009°09'0 0.0
2019-Nov-01 22:30N 38°42' W 009°09'0 0.0
2019-Nov-01 22:00N 38°42' W 009°09'0 0.0
2019-Nov-01 21:30N 38°42' W 009°09'0 0.0
2019-Nov-01 21:00N 38°42' W 009°09'0 0.0
2019-Nov-01 20:30N 38°42' W 009°09'0 0.0
2019-Nov-01 20:00N 38°42' W 009°09'0 0.0
2019-Nov-01 19:30N 38°42' W 009°09'0 0.0
2019-Nov-01 19:00N 38°42' W 009°09'0 0.0
2019-Nov-01 18:30N 38°42' W 009°09'0 0.0
2019-Nov-01 18:00N 38°42' W 009°09'0 0.0
2019-Nov-01 17:30N 38°42' W 009°09'0 0.0
2019-Nov-01 17:00N 38°42' W 009°09'0 0.0
2019-Nov-01 16:30N 38°42' W 009°09'0 0.0
2019-Nov-01 16:00N 38°42' W 009°09'0 0.0
2019-Nov-01 15:29N 38°42' W 009°09'0 0.0
2019-Nov-01 14:59N 38°42' W 009°09'0 0.0
2019-Nov-01 14:29N 38°42' W 009°09'0 0.0
2019-Nov-01 13:59N 38°42' W 009°09'0 0.0
2019-Nov-01 13:29N 38°42' W 009°09'0 0.0
2019-Nov-01 12:59N 38°42' W 009°09'0 0.0
2019-Nov-01 12:29N 38°42' W 009°09'0 0.0
2019-Nov-01 11:59N 38°42' W 009°09'  

Dump ship's entire track history